sensor_id;sensor_type;location;lat;lon;timestamp;pressure;altitude;pressure_sealevel;temperature;humidity
39309;BME280;26019;47.510;19.122;2023-06-14T00:02:43;100000.03;;;12.57;100.00
39309;BME280;26019;47.510;19.122;2023-06-14T00:12:45;100004.88;;;12.27;100.00
39309;BME280;26019;47.510;19.122;2023-06-14T00:22:47;100005.88;;;12.20;100.00
39309;BME280;26019;47.510;19.122;2023-06-14T00:32:49;100012.22;;;12.02;100.00
39309;BME280;26019;47.510;19.122;2023-06-14T00:42:52;100011.56;;;11.89;100.00
39309;BME280;26019;47.510;19.122;2023-06-14T00:52:57;100012.47;;;11.83;100.00
39309;BME280;26019;47.510;19.122;2023-06-14T01:02:59;100011.81;;;11.70;100.00
39309;BME280;26019;47.510;19.122;2023-06-14T01:13:12;100012.06;;;11.55;100.00
39309;BME280;26019;47.510;19.122;2023-06-14T01:23:18;99997.63;;;11.38;100.00
39309;BME280;26019;47.510;19.122;2023-06-14T01:33:24;100002.06;;;11.30;100.00
39309;BME280;26019;47.510;19.122;2023-06-14T01:43:30;100007.31;;;11.25;100.00
39309;BME280;26019;47.510;19.122;2023-06-14T01:53:33;100008.91;;;11.34;100.00
39309;BME280;26019;47.510;19.122;2023-06-14T02:03:35;100018.59;;;11.18;100.00
39309;BME280;26019;47.510;19.122;2023-06-14T02:13:40;100029.03;;;11.13;100.00
39309;BME280;26019;47.510;19.122;2023-06-14T02:23:42;100028.31;;;10.99;100.00
39309;BME280;26019;47.510;19.122;2023-06-14T02:33:45;100030.09;;;10.95;100.00
39309;BME280;26019;47.510;19.122;2023-06-14T02:43:47;100031.06;;;10.86;100.00
39309;BME280;26019;47.510;19.122;2023-06-14T02:53:49;100024.03;;;10.98;100.00
39309;BME280;26019;47.510;19.122;2023-06-14T03:03:50;100022.22;;;11.06;100.00
39309;BME280;26019;47.510;19.122;2023-06-14T03:13:53;100016.88;;;11.18;100.00
39309;BME280;26019;47.510;19.122;2023-06-14T03:23:55;100025.56;;;11.13;100.00
39309;BME280;26019;47.510;19.122;2023-06-14T03:33:57;100022.81;;;11.25;100.00
39309;BME280;26019;47.510;19.122;2023-06-14T03:43:59;100018.25;;;11.43;100.00
39309;BME280;26019;47.510;19.122;2023-06-14T03:54:01;100027.72;;;11.45;100.00
39309;BME280;26019;47.510;19.122;2023-06-14T04:04:23;100038.63;;;11.66;100.00
39309;BME280;26019;47.510;19.122;2023-06-14T04:14:30;100037.44;;;11.87;100.00
39309;BME280;26019;47.510;19.122;2023-06-14T04:24:38;100055.19;;;12.14;100.00
39309;BME280;26019;47.510;19.122;2023-06-14T04:34:42;100052.91;;;12.45;100.00
39309;BME280;26019;47.510;19.122;2023-06-14T04:44:47;100063.63;;;12.74;100.00
39309;BME280;26019;47.510;19.122;2023-06-14T04:54:50;100067.16;;;13.15;100.00
39309;BME280;26019;47.510;19.122;2023-06-14T05:04:54;100075.19;;;13.45;100.00
39309;BME280;26019;47.510;19.122;2023-06-14T05:14:58;100064.56;;;13.94;100.00
39309;BME280;26019;47.510;19.122;2023-06-14T05:25:00;100073.31;;;14.60;100.00
39309;BME280;26019;47.510;19.122;2023-06-14T05:35:04;100073.47;;;15.19;100.00
39309;BME280;26019;47.510;19.122;2023-06-14T05:45:07;100072.91;;;15.37;100.00
39309;BME280;26019;47.510;19.122;2023-06-14T05:55:10;100070.63;;;15.57;100.00
39309;BME280;26019;47.510;19.122;2023-06-14T06:05:14;100082.69;;;16.16;100.00
39309;BME280;26019;47.510;19.122;2023-06-14T06:15:20;100077.75;;;16.34;100.00
39309;BME280;26019;47.510;19.122;2023-06-14T06:25:22;100079.47;;;16.85;100.00
39309;BME280;26019;47.510;19.122;2023-06-14T06:35:27;100077.09;;;17.51;100.00
39309;BME280;26019;47.510;19.122;2023-06-14T06:45:32;100086.59;;;17.96;100.00
39309;BME280;26019;47.510;19.122;2023-06-14T06:55:36;100081.72;;;19.13;100.00
39309;BME280;26019;47.510;19.122;2023-06-14T07:05:38;100085.81;;;20.12;93.72
39309;BME280;26019;47.510;19.122;2023-06-14T07:15:40;100076.06;;;19.97;73.67
39309;BME280;26019;47.510;19.122;2023-06-14T07:25:41;100089.28;;;20.31;71.86
39309;BME280;26019;47.510;19.122;2023-06-14T07:35:43;100088.59;;;20.44;70.46
39309;BME280;26019;47.510;19.122;2023-06-14T07:45:45;100095.63;;;20.95;67.28
39309;BME280;26019;47.510;19.122;2023-06-14T07:56:08;100101.47;;;21.50;60.92
39309;BME280;26019;47.510;19.122;2023-06-14T08:06:09;100100.63;;;21.49;62.75
39309;BME280;26019;47.510;19.122;2023-06-14T08:16:12;100093.09;;;22.67;60.86
39309;BME280;26019;47.510;19.122;2023-06-14T08:26:14;100096.19;;;23.03;58.68
39309;BME280;26019;47.510;19.122;2023-06-14T08:36:18;100109.38;;;22.74;53.35
39309;BME280;26019;47.510;19.122;2023-06-14T08:46:20;100117.38;;;22.87;52.38
39309;BME280;26019;47.510;19.122;2023-06-14T08:56:26;100129.81;;;23.14;51.22
39309;BME280;26019;47.510;19.122;2023-06-14T09:06:31;100142.22;;;22.97;49.87
39309;BME280;26019;47.510;19.122;2023-06-14T09:16:34;100134.59;;;23.36;51.35
39309;BME280;26019;47.510;19.122;2023-06-14T09:26:38;100132.59;;;22.67;49.41
39309;BME280;26019;47.510;19.122;2023-06-14T09:36:40;100128.41;;;22.18;49.07
39309;BME280;26019;47.510;19.122;2023-06-14T09:46:44;100119.03;;;22.44;47.37
39309;BME280;26019;47.510;19.122;2023-06-14T09:56:48;100101.09;;;26.92;38.20
39309;BME280;26019;47.510;19.122;2023-06-14T10:06:53;100106.38;;;30.58;30.58
39309;BME280;26019;47.510;19.122;2023-06-14T10:27:00;100095.44;;;32.97;24.12
39309;BME280;26019;47.510;19.122;2023-06-14T10:47:29;100083.34;;;31.23;28.16
39309;BME280;26019;47.510;19.122;2023-06-14T10:57:30;100078.28;;;31.48;23.10
39309;BME280;26019;47.510;19.122;2023-06-14T11:08:17;100077.47;;;27.12;32.00
39309;BME280;26019;47.510;19.122;2023-06-14T11:18:28;100061.50;;;31.09;30.16
39309;BME280;26019;47.510;19.122;2023-06-14T11:38:38;100071.16;;;24.86;34.76
39309;BME280;26019;47.510;19.122;2023-06-14T11:48:42;100062.03;;;25.77;34.51
39309;BME280;26019;47.510;19.122;2023-06-14T11:58:45;100057.72;;;24.24;41.03
39309;BME280;26019;47.510;19.122;2023-06-14T12:08:47;100052.47;;;25.26;38.54
39309;BME280;26019;47.510;19.122;2023-06-14T12:18:53;100061.25;;;31.31;30.05
39309;BME280;26019;47.510;19.122;2023-06-14T12:28:56;100063.25;;;27.13;36.48
39309;BME280;26019;47.510;19.122;2023-06-14T12:38:58;100066.16;;;26.17;36.91
39309;BME280;26019;47.510;19.122;2023-06-14T12:49:02;100068.03;;;26.51;36.00
39309;BME280;26019;47.510;19.122;2023-06-14T12:59:06;100058.41;;;35.31;25.50
39309;BME280;26019;47.510;19.122;2023-06-14T13:09:11;100062.31;;;33.41;25.03
39309;BME280;26019;47.510;19.122;2023-06-14T13:19:14;100055.28;;;29.15;30.43
39309;BME280;26019;47.510;19.122;2023-06-14T13:29:16;100059.16;;;27.09;36.14
39309;BME280;26019;47.510;19.122;2023-06-14T13:39:18;100040.09;;;27.92;33.69
39309;BME280;26019;47.510;19.122;2023-06-14T13:49:20;100034.97;;;28.11;32.13
39309;BME280;26019;47.510;19.122;2023-06-14T13:59:24;100030.47;;;28.64;32.98
39309;BME280;26019;47.510;19.122;2023-06-14T14:09:26;100043.81;;;26.44;33.56
39309;BME280;26019;47.510;19.122;2023-06-14T14:19:28;100037.19;;;25.05;34.38
39309;BME280;26019;47.510;19.122;2023-06-14T14:29:30;100032.31;;;26.09;34.11
39309;BME280;26019;47.510;19.122;2023-06-14T14:39:31;100043.28;;;25.81;32.36
39309;BME280;26019;47.510;19.122;2023-06-14T14:49:40;100032.72;;;27.74;31.31
39309;BME280;26019;47.510;19.122;2023-06-14T14:59:43;100037.22;;;26.95;31.88
39309;BME280;26019;47.510;19.122;2023-06-14T15:09:46;100031.34;;;24.63;33.69
39309;BME280;26019;47.510;19.122;2023-06-14T15:19:52;100023.50;;;23.69;34.51
39309;BME280;26019;47.510;19.122;2023-06-14T15:29:53;100032.53;;;22.81;34.39
39309;BME280;26019;47.510;19.122;2023-06-14T15:39:57;100025.56;;;22.80;34.67
39309;BME280;26019;47.510;19.122;2023-06-14T15:49:59;100009.72;;;23.51;37.34
39309;BME280;26019;47.510;19.122;2023-06-14T16:00:01;100018.72;;;23.34;38.94
39309;BME280;26019;47.510;19.122;2023-06-14T16:10:03;100012.19;;;24.85;37.51
39309;BME280;26019;47.510;19.122;2023-06-14T16:20:05;100027.44;;;23.49;39.50
39309;BME280;26019;47.510;19.122;2023-06-14T16:30:08;100043.03;;;23.80;40.86
39309;BME280;26019;47.510;19.122;2023-06-14T16:40:10;100048.53;;;23.77;38.44
39309;BME280;26019;47.510;19.122;2023-06-14T16:50:11;100047.69;;;24.55;36.45
39309;BME280;26019;47.510;19.122;2023-06-14T17:00:14;100061.81;;;28.60;29.79
39309;BME280;26019;47.510;19.122;2023-06-14T17:10:16;100074.31;;;25.78;34.54
39309;BME280;26019;47.510;19.122;2023-06-14T17:20:18;100084.19;;;22.99;40.86
39309;BME280;26019;47.510;19.122;2023-06-14T17:30:21;100090.09;;;21.82;44.21
39309;BME280;26019;47.510;19.122;2023-06-14T17:40:32;100088.03;;;21.07;46.46
39309;BME280;26019;47.510;19.122;2023-06-14T17:50:49;100096.22;;;20.67;48.06
39309;BME280;26019;47.510;19.122;2023-06-14T18:00:51;100093.06;;;20.78;47.83
39309;BME280;26019;47.510;19.122;2023-06-14T18:10:53;100108.56;;;20.47;46.73
39309;BME280;26019;47.510;19.122;2023-06-14T18:20:54;100099.00;;;20.11;49.50
39309;BME280;26019;47.510;19.122;2023-06-14T18:30:58;100101.63;;;19.55;52.30
39309;BME280;26019;47.510;19.122;2023-06-14T18:41:00;100123.13;;;19.04;53.81
39309;BME280;26019;47.510;19.122;2023-06-14T18:51:03;100125.28;;;18.74;57.15
39309;BME280;26019;47.510;19.122;2023-06-14T19:01:05;100134.13;;;18.50;61.26
39309;BME280;26019;47.510;19.122;2023-06-14T19:11:07;100139.63;;;18.22;65.21
39309;BME280;26019;47.510;19.122;2023-06-14T19:21:18;100160.19;;;17.87;67.97
39309;BME280;26019;47.510;19.122;2023-06-14T19:31:20;100168.44;;;17.52;73.61
39309;BME280;26019;47.510;19.122;2023-06-14T19:41:24;100174.63;;;17.26;73.68
39309;BME280;26019;47.510;19.122;2023-06-14T19:51:29;100183.13;;;17.07;80.60
39309;BME280;26019;47.510;19.122;2023-06-14T20:01:32;100178.81;;;16.79;90.78
39309;BME280;26019;47.510;19.122;2023-06-14T20:11:34;100179.94;;;16.72;96.03
39309;BME280;26019;47.510;19.122;2023-06-14T20:21:36;100173.09;;;16.68;96.14
39309;BME280;26019;47.510;19.122;2023-06-14T20:31:39;100175.63;;;16.44;100.00
39309;BME280;26019;47.510;19.122;2023-06-14T20:41:41;100178.97;;;16.21;100.00
39309;BME280;26019;47.510;19.122;2023-06-14T20:51:44;100183.25;;;15.95;100.00
39309;BME280;26019;47.510;19.122;2023-06-14T21:01:47;100177.53;;;15.82;100.00
39309;BME280;26019;47.510;19.122;2023-06-14T21:11:48;100174.16;;;15.48;100.00
39309;BME280;26019;47.510;19.122;2023-06-14T21:21:53;100178.94;;;15.32;100.00
39309;BME280;26019;47.510;19.122;2023-06-14T21:31:56;100186.38;;;15.15;100.00
39309;BME280;26019;47.510;19.122;2023-06-14T21:42:02;100179.53;;;15.11;100.00
39309;BME280;26019;47.510;19.122;2023-06-14T21:52:06;100182.53;;;14.95;100.00
39309;BME280;26019;47.510;19.122;2023-06-14T22:02:08;100176.72;;;14.87;100.00
39309;BME280;26019;47.510;19.122;2023-06-14T22:12:10;100178.88;;;14.69;100.00
39309;BME280;26019;47.510;19.122;2023-06-14T22:22:23;100176.78;;;14.47;100.00
39309;BME280;26019;47.510;19.122;2023-06-14T22:32:30;100161.03;;;14.17;100.00
39309;BME280;26019;47.510;19.122;2023-06-14T22:42:42;100162.19;;;14.04;100.00
39309;BME280;26019;47.510;19.122;2023-06-14T22:52:48;100172.06;;;13.89;100.00
39309;BME280;26019;47.510;19.122;2023-06-14T23:02:50;100163.81;;;13.69;100.00
39309;BME280;26019;47.510;19.122;2023-06-14T23:12:52;100162.41;;;13.55;100.00
39309;BME280;26019;47.510;19.122;2023-06-14T23:22:56;100160.88;;;13.43;100.00
39309;BME280;26019;47.510;19.122;2023-06-14T23:32:58;100161.19;;;13.26;100.00
39309;BME280;26019;47.510;19.122;2023-06-14T23:43:05;100151.06;;;13.14;100.00
39309;BME280;26019;47.510;19.122;2023-06-14T23:53:09;100153.09;;;12.96;100.00
